createdAt,value
2018-12-29T00:03:45.825Z,69.80
2018-12-29T00:08:51.968Z,69.90
2018-12-29T00:13:58.134Z,70.00
2018-12-29T00:19:14.569Z,70.20
2018-12-29T00:24:20.786Z,70.30
2018-12-29T00:29:26.971Z,70.80
2018-12-29T00:34:33.250Z,70.50
2018-12-29T00:39:39.410Z,70.70
2018-12-29T00:44:45.807Z,70.80
2018-12-29T00:49:52.064Z,70.90
2018-12-29T00:54:58.349Z,70.90
2018-12-29T01:00:04.927Z,71.20
2018-12-29T01:05:11.224Z,71.40
2018-12-29T01:10:17.567Z,71.40
2018-12-29T01:15:23.779Z,71.30
2018-12-29T01:20:30.105Z,71.40
2018-12-29T01:25:36.628Z,71.60
2018-12-29T01:30:42.758Z,71.60
2018-12-29T01:35:49.137Z,71.70
2018-12-29T01:40:55.436Z,71.80
2018-12-29T01:46:01.719Z,72.00
2018-12-29T01:51:08.030Z,72.20
2018-12-29T01:56:14.174Z,72.40
2018-12-29T02:01:20.456Z,72.40
2018-12-29T02:06:26.622Z,72.50
2018-12-29T02:11:32.809Z,72.80
2018-12-29T02:16:39.248Z,72.90
2018-12-29T02:21:45.484Z,72.90
2018-12-29T02:26:51.650Z,73.00
2018-12-29T02:31:57.930Z,73.30
2018-12-29T02:37:04.203Z,73.50
2018-12-29T02:42:10.570Z,73.70
2018-12-29T02:47:16.755Z,73.90
2018-12-29T02:52:23.049Z,74.10
2018-12-29T02:57:29.202Z,74.20
2018-12-29T03:02:35.302Z,74.40
2018-12-29T03:07:41.583Z,74.60
2018-12-29T03:12:47.775Z,75.00
2018-12-29T03:17:54.035Z,75.10
2018-12-29T03:23:00.243Z,75.30
2018-12-29T03:28:06.806Z,75.40
2018-12-29T03:33:13.143Z,75.60
2018-12-29T03:38:19.712Z,75.60
2018-12-29T03:43:25.961Z,75.80
2018-12-29T03:48:32.287Z,76.00
2018-12-29T03:53:38.706Z,75.80
2018-12-29T03:58:44.880Z,76.40
2018-12-29T04:03:51.168Z,76.70
2018-12-29T04:09:34.868Z,76.70
2018-12-29T04:14:41.479Z,76.70
2018-12-29T04:19:48.059Z,76.70
2018-12-29T04:24:54.324Z,76.90
2018-12-29T04:30:00.483Z,76.90
2018-12-29T04:35:06.892Z,77.00
2018-12-29T04:40:13.082Z,77.00
2018-12-29T04:45:19.243Z,77.10
2018-12-29T04:50:25.455Z,77.20
2018-12-29T04:55:31.771Z,77.40
2018-12-29T05:00:37.959Z,77.50
2018-12-29T05:05:44.082Z,77.70
2018-12-29T05:10:51.376Z,78.00
2018-12-29T05:15:57.729Z,78.20
2018-12-29T05:21:04.151Z,78.30
2018-12-29T05:26:11.407Z,78.60
2018-12-29T05:31:17.610Z,78.70
2018-12-29T05:36:23.753Z,78.90
2018-12-29T05:41:29.962Z,79.00
2018-12-29T05:46:36.325Z,79.20
2018-12-29T05:51:42.673Z,79.30
2018-12-29T05:56:48.974Z,79.50
2018-12-29T06:01:55.256Z,79.70
2018-12-29T06:07:01.451Z,80.00
2018-12-29T06:12:07.654Z,80.30
2018-12-29T06:17:13.867Z,80.40
2018-12-29T06:22:20.114Z,80.60
2018-12-29T06:27:26.433Z,81.00
2018-12-29T06:32:32.835Z,81.10
2018-12-29T06:37:39.086Z,81.50
2018-12-29T06:42:45.267Z,81.60
2018-12-29T06:47:51.692Z,81.70
2018-12-29T06:52:57.815Z,81.90
2018-12-29T06:58:04.141Z,82.10
2018-12-29T07:03:10.709Z,82.30
2018-12-29T07:08:17.085Z,82.30
2018-12-29T07:13:23.368Z,82.30
2018-12-29T07:18:29.878Z,82.20
2018-12-29T07:23:36.099Z,82.00
2018-12-29T07:28:42.400Z,81.90
2018-12-29T07:33:48.853Z,81.70
2018-12-29T07:38:54.976Z,81.70
2018-12-29T07:44:01.280Z,81.70
2018-12-29T07:49:07.498Z,81.80
2018-12-29T07:54:15.446Z,81.80
2018-12-29T07:59:21.633Z,81.80
2018-12-29T08:04:27.925Z,81.80
2018-12-29T08:09:34.086Z,81.60
2018-12-29T08:14:40.258Z,81.60
2018-12-29T08:19:46.592Z,81.90
2018-12-29T08:24:52.995Z,81.70
2018-12-29T08:29:59.218Z,82.00
2018-12-29T08:35:05.527Z,82.00
2018-12-29T08:40:12.789Z,81.70
2018-12-29T08:45:18.905Z,81.90
2018-12-29T08:50:25.090Z,81.80
2018-12-29T08:55:31.753Z,82.00
2018-12-29T09:00:37.941Z,82.20
2018-12-29T09:05:44.116Z,82.30
2018-12-29T09:10:50.320Z,82.60
2018-12-29T09:15:56.589Z,82.50
2018-12-29T09:21:02.973Z,82.50
2018-12-29T09:26:09.107Z,82.60
2018-12-29T09:31:15.259Z,82.60
2018-12-29T09:36:21.473Z,82.70
2018-12-29T09:41:27.725Z,82.50
2018-12-29T09:46:34.151Z,82.70
2018-12-29T09:51:40.443Z,82.90
2018-12-29T09:56:46.607Z,82.90
2018-12-29T10:01:52.810Z,83.10
2018-12-29T10:06:59.166Z,82.90
2018-12-29T10:12:05.253Z,83.30
2018-12-29T10:17:11.348Z,83.50
2018-12-29T10:22:17.493Z,83.50
2018-12-29T10:27:23.664Z,83.90
2018-12-29T10:32:29.994Z,84.10
2018-12-29T10:37:37.012Z,84.10
2018-12-29T10:42:43.266Z,84.20
2018-12-29T10:47:49.347Z,84.20
2018-12-29T10:52:55.793Z,84.20
2018-12-29T10:58:01.911Z,84.30
2018-12-29T11:03:08.086Z,84.30
2018-12-29T11:08:14.347Z,84.40
2018-12-29T11:13:20.523Z,84.50
2018-12-29T11:18:27.048Z,84.50
2018-12-29T11:23:33.292Z,84.70
2018-12-29T11:28:39.461Z,84.70
2018-12-29T11:33:45.572Z,84.70
2018-12-29T11:38:51.772Z,84.40
2018-12-29T11:43:57.907Z,84.50
2018-12-29T11:49:04.182Z,84.60
2018-12-29T11:54:10.561Z,84.60
2018-12-29T11:59:16.790Z,84.90
2018-12-29T12:04:22.855Z,84.80
2018-12-29T12:09:30.351Z,84.90
2018-12-29T12:14:36.649Z,84.90
2018-12-29T12:19:43.367Z,84.80
2018-12-29T12:24:49.591Z,84.90
2018-12-29T12:29:55.813Z,84.90
2018-12-29T12:35:02.277Z,85.10
2018-12-29T12:40:08.556Z,85.00
2018-12-29T12:45:14.786Z,85.10
2018-12-29T12:50:20.954Z,85.00
2018-12-29T12:55:27.192Z,85.40
2018-12-29T13:00:33.466Z,85.50
2018-12-29T13:05:40.119Z,85.40
2018-12-29T13:10:46.323Z,85.50
2018-12-29T13:15:52.500Z,85.50
2018-12-29T13:20:58.862Z,85.50
2018-12-29T13:26:05.533Z,85.70
2018-12-29T13:31:11.743Z,85.80
2018-12-29T13:36:17.963Z,86.00
2018-12-29T13:41:24.250Z,86.40
2018-12-29T13:46:30.624Z,86.60
2018-12-29T13:51:36.933Z,86.70
2018-12-29T13:56:43.221Z,87.00
2018-12-29T14:01:49.456Z,87.30
2018-12-29T14:06:56.079Z,87.50
2018-12-29T14:12:02.266Z,87.70
2018-12-29T14:17:08.406Z,87.90
2018-12-29T14:22:14.766Z,88.20
2018-12-29T14:27:21.064Z,88.60
2018-12-29T14:32:27.234Z,89.00
2018-12-29T14:37:33.455Z,89.20
2018-12-29T14:42:40.025Z,89.70
2018-12-29T14:47:46.281Z,90.00
2018-12-29T14:52:52.368Z,90.20
2018-12-29T14:57:58.558Z,90.40
2018-12-29T15:03:04.810Z,90.60
2018-12-29T15:08:12.015Z,90.80
2018-12-29T15:13:18.387Z,90.80
2018-12-29T15:18:24.536Z,91.00
2018-12-29T15:23:31.096Z,91.10
2018-12-29T15:28:37.398Z,91.10
2018-12-29T15:33:43.609Z,91.40
2018-12-29T15:38:49.876Z,91.60
2018-12-29T15:43:55.999Z,91.80
2018-12-29T15:49:02.262Z,91.90
2018-12-29T15:54:08.861Z,92.10
2018-12-29T15:59:15.381Z,92.30
2018-12-29T16:04:21.659Z,92.40
2018-12-29T16:09:27.933Z,92.60
2018-12-29T16:14:35.518Z,92.80
2018-12-29T16:19:42.146Z,92.90
2018-12-29T16:24:48.451Z,93.10
2018-12-29T16:29:55.020Z,93.30
2018-12-29T16:35:01.216Z,93.40
2018-12-29T16:40:07.477Z,93.50
2018-12-29T16:45:14.116Z,93.90
2018-12-29T16:50:20.344Z,93.70
2018-12-29T16:55:26.655Z,93.90
2018-12-29T17:00:33.220Z,94.00
2018-12-29T17:05:39.516Z,94.10
2018-12-29T17:10:45.842Z,94.20
2018-12-29T17:15:52.167Z,94.30
2018-12-29T17:20:58.440Z,94.30
2018-12-29T17:26:04.726Z,94.20
2018-12-29T17:31:11.366Z,94.10
2018-12-29T17:36:17.660Z,93.90
2018-12-29T17:41:23.977Z,93.90
2018-12-29T17:46:30.698Z,93.70
2018-12-29T17:51:36.914Z,93.70
2018-12-29T17:56:43.259Z,93.60
2018-12-29T18:01:50.714Z,93.60
2018-12-29T18:06:56.949Z,93.50
2018-12-29T18:12:03.251Z,93.40
2018-12-29T18:17:09.584Z,93.20
2018-12-29T18:22:16.010Z,93.10
2018-12-29T18:27:22.146Z,92.80
2018-12-29T18:32:29.688Z,92.50
2018-12-29T18:37:36.016Z,92.40
2018-12-29T18:42:42.648Z,92.50
2018-12-29T18:47:48.786Z,91.80
2018-12-29T18:52:54.996Z,91.50
2018-12-29T18:58:01.193Z,91.20
2018-12-29T19:03:07.772Z,91.00
2018-12-29T19:08:14.056Z,90.70
2018-12-29T19:13:20.376Z,90.40
2018-12-29T19:18:26.814Z,90.20
2018-12-29T19:23:33.052Z,89.90
2018-12-29T19:28:39.661Z,89.50
2018-12-29T19:33:46.300Z,89.00
2018-12-29T19:38:52.556Z,88.50
2018-12-29T19:43:59.083Z,88.00
2018-12-29T19:49:05.580Z,87.60
2018-12-29T19:54:11.851Z,87.40
2018-12-29T19:59:18.301Z,87.00
2018-12-29T20:04:24.533Z,86.90
2018-12-29T20:09:31.242Z,86.60
2018-12-29T20:14:37.739Z,85.90
2018-12-29T20:19:44.066Z,85.70
2018-12-29T20:24:50.204Z,85.40
2018-12-29T20:29:56.357Z,85.10
2018-12-29T20:35:02.664Z,84.80
2018-12-29T20:40:08.912Z,84.10
2018-12-29T20:45:15.041Z,83.30
2018-12-29T20:50:21.223Z,82.70
2018-12-29T20:55:27.408Z,82.20
2018-12-29T21:00:33.975Z,81.70
2018-12-29T21:05:40.209Z,81.30
2018-12-29T21:10:46.391Z,80.90
2018-12-29T21:15:52.490Z,80.60
2018-12-29T21:20:58.670Z,80.10
2018-12-29T21:26:04.883Z,79.70
2018-12-29T21:31:11.101Z,79.40
2018-12-29T21:36:17.197Z,78.90
2018-12-29T21:41:23.546Z,78.80
2018-12-29T21:46:30.008Z,78.40
2018-12-29T21:51:36.206Z,78.10
2018-12-29T21:56:42.922Z,77.80
2018-12-29T22:01:49.243Z,77.70
2018-12-29T22:06:55.826Z,77.60
2018-12-29T22:12:01.966Z,77.60
2018-12-29T22:17:08.513Z,77.70
2018-12-29T22:22:14.745Z,77.80
2018-12-29T22:27:21.669Z,77.80
2018-12-29T22:32:27.874Z,77.80
2018-12-29T22:37:34.549Z,77.50
2018-12-29T22:42:40.600Z,77.40
2018-12-29T22:47:48.048Z,77.40
2018-12-29T22:52:54.316Z,77.30
2018-12-29T22:58:08.383Z,77.20
2018-12-29T23:03:08.737Z,77.10
2018-12-29T23:08:14.908Z,77.10
2018-12-29T23:13:21.122Z,77.00
2018-12-29T23:18:27.448Z,76.90
2018-12-29T23:23:33.668Z,77.00
2018-12-29T23:28:39.958Z,76.80
2018-12-29T23:33:46.226Z,76.80
2018-12-29T23:38:52.844Z,76.80
2018-12-29T23:43:59.125Z,76.80
2018-12-29T23:49:05.346Z,76.90
2018-12-29T23:54:11.570Z,76.80
2018-12-29T23:59:18.291Z,76.70
